Time;durP1;ratioP1;P1;durP2;ratioP2;P2;SDS_P1;SDS_P2;PMS_P1;PMS_P2;Temp;Humidity;BMP_temperature;BMP_pressure;BME280_temperature;BME280_humidity;BME280_pressure;Samples;Min_cycle;Max_cycle;Signal;HPM_P1;HPM_P2
2023/08/15 00:01:45;;;;;;;1999.90;999.90;;;21.90;99.90;;;;;;4984948;28;20500;-70
2023/08/15 00:04:11;;;;;;;1999.90;999.90;;;21.80;99.90;;;;;;4982471;28;20434;-70
2023/08/15 00:06:38;;;;;;;1999.90;999.90;;;21.80;99.90;;;;;;4992314;28;20441;-69
2023/08/15 00:09:05;;;;;;;1999.90;999.90;;;21.80;99.90;;;;;;4991589;28;20456;-68
2023/08/15 00:11:33;;;;;;;1999.90;999.90;;;21.90;99.90;;;;;;4989721;28;20523;-70
2023/08/15 00:14:00;;;;;;;1999.90;999.90;;;21.70;99.90;;;;;;4987392;28;20430;-69
2023/08/15 00:16:26;;;;;;;1999.90;999.90;;;21.60;99.90;;;;;;4982643;28;20450;-69
2023/08/15 00:18:53;;;;;;;1999.90;999.90;;;21.60;99.90;;;;;;4983213;28;20527;-70
2023/08/15 00:21:20;;;;;;;1999.90;999.90;;;21.60;99.90;;;;;;4984236;28;20442;-68
2023/08/15 00:23:47;;;;;;;1999.90;999.90;;;21.60;99.90;;;;;;4991497;28;20438;-70
2023/08/15 00:26:13;;;;;;;1999.90;999.90;;;21.70;99.90;;;;;;4987222;28;20434;-69
2023/08/15 00:28:42;;;;;;;1999.90;999.90;;;21.60;99.90;;;;;;4983285;28;20447;-67
2023/08/15 00:31:08;;;;;;;1999.90;999.90;;;21.50;99.90;;;;;;4990871;28;20434;-70
2023/08/15 00:33:35;;;;;;;1999.90;999.90;;;21.50;99.90;;;;;;4980420;28;20443;-70
2023/08/15 00:36:04;;;;;;;1999.90;999.90;;;21.40;99.90;;;;;;4981925;28;20521;-69
2023/08/15 00:38:31;;;;;;;1999.90;999.90;;;21.40;99.90;;;;;;4989750;28;20439;-69
2023/08/15 00:40:57;;;;;;;1999.90;999.90;;;21.40;99.90;;;;;;4987198;28;20473;-70
2023/08/15 00:43:24;;;;;;;1999.90;999.90;;;21.40;99.90;;;;;;4991324;28;20538;-70
2023/08/15 00:45:52;;;;;;;1999.90;999.90;;;21.30;99.90;;;;;;4983618;28;20441;-70
2023/08/15 00:48:22;;;;;;;1999.90;999.90;;;21.30;99.90;;;;;;4983075;28;20447;-69
2023/08/15 00:50:50;;;;;;;1999.90;999.90;;;21.10;99.90;;;;;;4989858;28;20430;-70
2023/08/15 00:53:19;;;;;;;1999.90;999.90;;;21.20;99.90;;;;;;4986970;28;20465;-70
2023/08/15 00:55:47;;;;;;;1999.90;999.90;;;21.20;99.90;;;;;;4989344;28;20822;-69
2023/08/15 00:58:13;;;;;;;1999.90;999.90;;;21.10;99.90;;;;;;4982444;28;20442;-70
2023/08/15 01:00:41;;;;;;;1999.90;999.90;;;21.20;99.90;;;;;;4975145;28;20440;-70
2023/08/15 01:03:10;;;;;;;1999.90;999.90;;;21.00;99.90;;;;;;4980876;28;20438;-69
2023/08/15 01:05:39;;;;;;;1999.90;999.90;;;21.00;99.90;;;;;;4990450;28;20445;-69
2023/08/15 01:08:07;;;;;;;1999.90;999.90;;;21.00;99.90;;;;;;4990555;28;20478;-68
2023/08/15 01:10:33;;;;;;;1999.90;999.90;;;21.00;99.90;;;;;;4985359;28;20446;-69
2023/08/15 01:13:13;;;;;;;1999.90;999.90;;;21.00;99.90;;;;;;4981589;28;20511;-70
2023/08/15 01:15:46;;;;;;;1999.90;999.90;;;20.90;99.90;;;;;;4978246;28;20447;-70
2023/08/15 01:18:18;;;;;;;1999.90;999.90;;;20.70;99.90;;;;;;4990322;28;20441;-69
2023/08/15 01:20:46;;;;;;;1999.90;999.90;;;20.70;99.90;;;;;;4986191;28;20516;-69
2023/08/15 01:23:15;;;;;;;1999.90;999.90;;;20.70;99.90;;;;;;4982690;28;20934;-71
2023/08/15 01:25:43;;;;;;;1999.90;999.90;;;20.60;99.90;;;;;;4977912;28;20436;-69
2023/08/15 01:28:12;;;;;;;1999.90;999.90;;;20.50;99.90;;;;;;4974931;28;20447;-69
2023/08/15 01:30:44;;;;;;;1999.90;999.90;;;20.60;99.90;;;;;;4985057;28;20438;-70
2023/08/15 01:33:17;;;;;;;1999.90;999.90;;;20.70;99.90;;;;;;4982031;28;20443;-68
2023/08/15 01:35:48;;;;;;;1999.90;999.90;;;20.60;99.90;;;;;;4982325;28;20435;-67
2023/08/15 01:38:34;;;;;;;1999.90;999.90;;;20.60;99.90;;;;;;4981203;28;20438;-71
2023/08/15 01:41:04;;;;;;;1999.90;999.90;;;20.60;99.90;;;;;;4974215;28;20435;-68
2023/08/15 01:43:33;;;;;;;1999.90;999.90;;;20.50;99.90;;;;;;4977700;28;20447;-69
2023/08/15 01:46:01;;;;;;;1999.90;999.90;;;20.40;99.90;;;;;;4986164;28;20436;-68
2023/08/15 01:48:28;;;;;;;1999.90;999.90;;;20.30;99.90;;;;;;4984374;28;20444;-70
2023/08/15 01:50:54;;;;;;;1999.90;999.90;;;20.20;99.90;;;;;;4982427;28;20439;-70
2023/08/15 01:53:21;;;;;;;1999.90;999.90;;;20.20;99.90;;;;;;4985008;28;20449;-70
2023/08/15 01:55:48;;;;;;;1999.90;999.90;;;20.20;99.90;;;;;;4989659;28;20474;-69
2023/08/15 01:58:16;;;;;;;1999.90;999.90;;;20.40;99.90;;;;;;4988957;28;20450;-70
2023/08/15 02:00:43;;;;;;;1999.90;999.90;;;20.40;99.90;;;;;;4987099;28;20809;-70
2023/08/15 02:03:10;;;;;;;1999.90;999.90;;;20.50;99.90;;;;;;4979416;28;20451;-70
2023/08/15 02:05:37;;;;;;;1999.90;999.90;;;20.50;99.90;;;;;;4983274;28;20442;-70
2023/08/15 02:08:04;;;;;;;1999.90;999.90;;;20.40;99.90;;;;;;4989065;28;20446;-69
2023/08/15 02:10:31;;;;;;;1999.90;999.90;;;20.30;99.90;;;;;;4988477;28;20438;-68
2023/08/15 02:12:57;;;;;;;1999.90;999.90;;;20.30;99.90;;;;;;4988382;28;20441;-70
2023/08/15 02:15:25;;;;;;;1999.90;999.90;;;20.20;99.90;;;;;;4982832;28;20438;-69
2023/08/15 02:17:52;;;;;;;1999.90;999.90;;;20.20;99.90;;;;;;4984992;28;20442;-70
2023/08/15 02:20:19;;;;;;;1999.90;999.90;;;20.30;99.90;;;;;;4988421;28;20449;-68
2023/08/15 02:22:46;;;;;;;1999.90;999.90;;;20.40;99.90;;;;;;4976784;28;20520;-70
2023/08/15 02:25:12;;;;;;;1999.90;999.90;;;20.30;99.90;;;;;;4988255;28;20930;-70
2023/08/15 02:27:39;;;;;;;1999.90;999.90;;;20.50;99.90;;;;;;4983192;28;20447;-71
2023/08/15 02:30:08;;;;;;;1999.90;999.90;;;20.40;99.90;;;;;;4984368;28;21456;-70
2023/08/15 02:32:36;;;;;;;1999.90;999.90;;;20.40;99.90;;;;;;4978399;28;20525;-68
2023/08/15 02:35:03;;;;;;;1999.90;999.90;;;20.30;99.90;;;;;;4973814;28;20440;-69
2023/08/15 02:37:29;;;;;;;1999.90;999.90;;;20.30;99.90;;;;;;4987458;28;20438;-69
2023/08/15 02:39:56;;;;;;;1999.90;999.90;;;20.20;99.90;;;;;;4978680;28;20453;-70
2023/08/15 02:42:23;;;;;;;1999.90;999.90;;;20.20;99.90;;;;;;4986935;28;20429;-70
2023/08/15 02:44:49;;;;;;;1999.90;999.90;;;20.00;99.90;;;;;;4984197;28;20466;-70
2023/08/15 02:47:16;;;;;;;1999.90;999.90;;;20.10;99.90;;;;;;4976580;28;20451;-69
2023/08/15 02:49:44;;;;;;;1999.90;999.90;;;20.00;99.90;;;;;;4976242;28;20438;-70
2023/08/15 02:52:11;;;;;;;1999.90;999.90;;;20.00;99.90;;;;;;4982212;28;20482;-69
2023/08/15 02:54:38;;;;;;;1999.90;999.90;;;20.10;99.90;;;;;;4986744;28;20469;-69
2023/08/15 02:57:04;;;;;;;1999.90;999.90;;;19.90;99.90;;;;;;4981830;28;20947;-70
2023/08/15 02:59:31;;;;;;;1999.90;999.90;;;19.90;99.90;;;;;;4976952;28;20441;-70
2023/08/15 03:01:58;;;;;;;1999.90;999.90;;;20.00;99.90;;;;;;4978961;28;20436;-69
2023/08/15 03:04:25;;;;;;;1999.90;999.90;;;20.10;99.90;;;;;;4978507;28;20441;-70
2023/08/15 03:06:53;;;;;;;1999.90;999.90;;;20.30;99.90;;;;;;4988183;28;20470;-70
2023/08/15 03:09:19;;;;;;;1999.90;999.90;;;20.20;99.90;;;;;;4988621;28;20434;-70
2023/08/15 03:11:46;;;;;;;1999.90;999.90;;;20.10;99.90;;;;;;4979352;28;20807;-70
2023/08/15 03:14:13;;;;;;;1999.90;999.90;;;20.10;99.90;;;;;;4976106;28;20447;-69
2023/08/15 03:16:39;;;;;;;1999.90;999.90;;;19.80;99.90;;;;;;4974113;28;20434;-70
2023/08/15 03:19:06;;;;;;;1999.90;999.90;;;19.70;99.90;;;;;;4988641;28;20438;-69
2023/08/15 03:21:33;;;;;;;1999.90;999.90;;;19.60;99.90;;;;;;4986399;28;20465;-69
2023/08/15 03:24:01;;;;;;;1999.90;999.90;;;19.60;99.90;;;;;;4980472;28;20487;-70
2023/08/15 03:26:28;;;;;;;1999.90;999.90;;;19.70;99.90;;;;;;4975816;28;21172;-69
2023/08/15 03:28:56;;;;;;;1999.90;999.90;;;19.70;99.90;;;;;;4982433;28;20493;-69
2023/08/15 03:31:23;;;;;;;1999.90;999.90;;;19.90;99.90;;;;;;4988471;28;20483;-68
2023/08/15 03:33:50;;;;;;;1999.90;999.90;;;19.90;99.90;;;;;;4985245;28;20812;-70
2023/08/15 03:36:17;;;;;;;1999.90;999.90;;;20.00;99.90;;;;;;4984644;28;20506;-70
2023/08/15 03:38:43;;;;;;;1999.90;999.90;;;19.90;99.90;;;;;;4980270;28;21116;-69
2023/08/15 03:41:11;;;;;;;1999.90;999.90;;;19.80;99.90;;;;;;4981748;28;20437;-67
2023/08/15 03:43:38;;;;;;;1999.90;999.90;;;19.70;99.90;;;;;;4989837;28;20426;-69
2023/08/15 03:46:05;;;;;;;1999.90;999.90;;;19.60;99.90;;;;;;4985743;28;20441;-70
2023/08/15 03:48:33;;;;;;;1999.90;999.90;;;19.70;99.90;;;;;;4983505;28;20449;-69
2023/08/15 03:51:00;;;;;;;1999.90;999.90;;;19.70;99.90;;;;;;4981335;28;20789;-69
2023/08/15 03:53:27;;;;;;;1999.90;999.90;;;19.80;99.90;;;;;;4986444;28;20437;-67
2023/08/15 03:55:55;;;;;;;1999.90;999.90;;;19.80;99.90;;;;;;4987456;28;20443;-70
2023/08/15 03:58:24;;;;;;;1999.90;999.90;;;19.60;99.90;;;;;;4988645;28;20440;-70
2023/08/15 04:00:51;;;;;;;1999.90;999.90;;;19.50;99.90;;;;;;4986003;28;20454;-70
2023/08/15 04:03:18;;;;;;;1999.90;999.90;;;19.40;99.90;;;;;;4985017;28;20981;-70
2023/08/15 04:05:44;;;;;;;1999.90;999.90;;;19.30;99.90;;;;;;4987393;28;20438;-68
2023/08/15 04:08:11;;;;;;;1999.90;999.90;;;19.30;99.90;;;;;;4985078;28;20468;-69
2023/08/15 04:10:40;;;;;;;1999.90;999.90;;;19.30;99.90;;;;;;4983073;28;21177;-70
2023/08/15 04:13:07;;;;;;;1999.90;999.90;;;19.40;99.90;;;;;;4983331;28;20463;-70
2023/08/15 04:15:36;;;;;;;1999.90;999.90;;;19.50;99.90;;;;;;4985018;28;20434;-70
2023/08/15 04:18:03;;;;;;;1999.90;999.90;;;19.60;99.90;;;;;;4989123;28;20528;-68
2023/08/15 04:20:30;;;;;;;1999.90;999.90;;;19.80;99.90;;;;;;4984105;28;20447;-70
2023/08/15 04:22:57;;;;;;;1999.90;999.90;;;19.80;99.90;;;;;;4987296;28;20430;-69
2023/08/15 04:25:23;;;;;;;1999.90;999.90;;;19.90;99.90;;;;;;4990793;28;20434;-70
2023/08/15 04:27:50;;;;;;;1999.90;999.90;;;20.00;99.90;;;;;;4991151;28;20434;-70
2023/08/15 04:30:18;;;;;;;1999.90;999.90;;;20.10;99.90;;;;;;4980695;28;20447;-69
2023/08/15 04:32:46;;;;;;;1999.90;999.90;;;20.20;99.90;;;;;;4977790;28;20432;-70
2023/08/15 04:35:13;;;;;;;1999.90;999.90;;;20.20;99.90;;;;;;4987489;28;20561;-70
2023/08/15 04:37:40;;;;;;;1999.90;999.90;;;20.30;99.90;;;;;;4974367;28;20467;-70
2023/08/15 04:40:11;;;;;;;1999.90;999.90;;;20.40;99.90;;;;;;4981003;28;20442;-69
2023/08/15 04:42:38;;;;;;;1999.90;999.90;;;20.60;99.90;;;;;;4975510;28;20435;-70
2023/08/15 04:45:05;;;;;;;1999.90;999.90;;;20.80;99.90;;;;;;4985659;28;20430;-70
2023/08/15 04:47:32;;;;;;;1999.90;999.90;;;20.90;99.90;;;;;;4986703;28;20840;-68
2023/08/15 04:50:00;;;;;;;1999.90;999.90;;;21.10;99.90;;;;;;5006786;23;20452;-67
2023/08/15 04:52:27;;;;;;;1999.90;999.90;;;21.20;99.90;;;;;;5002802;28;20436;-66
2023/08/15 04:54:54;;;;;;;1999.90;999.90;;;21.20;99.90;;;;;;5006783;28;20443;-66
2023/08/15 04:57:20;;;;;;;1999.90;999.90;;;21.30;99.90;;;;;;5001805;28;20432;-66
2023/08/15 04:59:47;;;;;;;1999.90;999.90;;;21.00;99.90;;;;;;4991574;28;20438;-66
2023/08/15 05:02:14;;;;;;;1999.90;999.90;;;20.90;99.90;;;;;;4985449;28;20886;-67
2023/08/15 05:04:40;;;;;;;1999.90;999.90;;;21.00;99.90;;;;;;4973418;28;20449;-67
2023/08/15 05:07:08;;;;;;;1999.90;999.90;;;21.10;99.90;;;;;;4974429;28;20444;-66
2023/08/15 05:09:35;;;;;;;1999.90;999.90;;;21.20;99.90;;;;;;4978495;28;20440;-66
2023/08/15 05:12:02;;;;;;;1999.90;999.90;;;21.30;99.90;;;;;;4985824;28;20438;-67
2023/08/15 05:14:29;;;;;;;1999.90;999.90;;;21.40;99.90;;;;;;4974898;28;20440;-67
2023/08/15 05:16:55;;;;;;;1999.90;999.90;;;21.50;99.90;;;;;;4987519;28;20440;-66
2023/08/15 05:19:22;;;;;;;1999.90;999.90;;;21.60;99.90;;;;;;4975261;28;20793;-67
2023/08/15 05:21:49;;;;;;;1999.90;999.90;;;21.80;99.90;;;;;;4982623;28;20440;-66
2023/08/15 05:24:17;;;;;;;1999.90;999.90;;;22.00;99.90;;;;;;4977158;28;20537;-66
2023/08/15 05:26:44;;;;;;;1999.90;999.90;;;22.20;99.90;;;;;;4989526;28;20574;-66
2023/08/15 05:29:10;;;;;;;1999.90;999.90;;;22.00;99.90;;;;;;4978479;28;20440;-67
2023/08/15 05:31:37;;;;;;;1999.90;999.90;;;21.90;99.90;;;;;;4977531;28;20440;-66
2023/08/15 05:34:04;;;;;;;1999.90;999.90;;;21.80;99.90;;;;;;4981652;28;20438;-68
2023/08/15 05:36:31;;;;;;;1999.90;999.90;;;21.80;99.90;;;;;;4984018;28;20442;-66
2023/08/15 05:38:57;;;;;;;1999.90;999.90;;;21.80;99.90;;;;;;4972591;28;20451;-66
2023/08/15 05:41:25;;;;;;;1999.90;999.90;;;21.80;99.90;;;;;;4979241;28;20471;-67
2023/08/15 05:43:52;;;;;;;1999.90;999.90;;;22.00;99.90;;;;;;4984563;28;20430;-67
2023/08/15 05:46:19;;;;;;;1999.90;999.90;;;22.00;99.90;;;;;;4987944;28;20451;-67
2023/08/15 05:48:45;;;;;;;1999.90;999.90;;;22.00;99.90;;;;;;4987938;28;20445;-66
2023/08/15 05:51:12;;;;;;;1999.90;999.90;;;22.10;99.90;;;;;;4980857;28;20438;-66
2023/08/15 05:53:39;;;;;;;1999.90;999.90;;;22.20;99.90;;;;;;4989583;28;20450;-68
2023/08/15 05:56:05;;;;;;;1999.90;999.90;;;22.30;99.90;;;;;;4985173;28;20436;-67
2023/08/15 05:58:33;;;;;;;1999.90;999.90;;;22.20;99.90;;;;;;4982626;28;20434;-66
2023/08/15 06:01:00;;;;;;;1999.90;999.90;;;22.40;99.90;;;;;;4989740;28;20468;-69
2023/08/15 06:03:27;;;;;;;1999.90;999.90;;;22.70;99.90;;;;;;4982449;28;20510;-69
2023/08/15 06:05:56;;;;;;;1999.90;999.90;;;22.90;99.90;;;;;;4985862;28;20522;-69
2023/08/15 06:08:23;;;;;;;1999.90;999.90;;;23.30;99.90;;;;;;4978796;28;20436;-68
2023/08/15 06:10:49;;;;;;;1999.90;999.90;;;23.50;99.90;;;;;;4976705;28;20846;-69
2023/08/15 06:13:16;;;;;;;1999.90;999.90;;;23.60;99.90;;;;;;4985200;28;20439;-70
2023/08/15 06:15:44;;;;;;;1999.90;999.90;;;23.70;99.90;;;;;;4989560;28;20415;-69
2023/08/15 06:18:11;;;;;;;1999.90;999.90;;;23.50;99.90;;;;;;4991306;28;20414;-70
2023/08/15 06:20:37;;;;;;;1999.90;999.90;;;23.40;99.90;;;;;;4987985;28;20422;-69
2023/08/15 06:23:04;;;;;;;1999.90;999.90;;;23.60;99.90;;;;;;4978452;28;20789;-70
2023/08/15 06:25:31;;;;;;;1999.90;999.90;;;23.80;99.90;;;;;;4974054;28;20436;-69
2023/08/15 06:27:58;;;;;;;1999.90;999.90;;;24.20;99.90;;;;;;4981388;28;20887;-69
2023/08/15 06:30:25;;;;;;;1999.90;999.90;;;24.50;99.90;;;;;;4980904;28;20442;-70
2023/08/15 06:32:53;;;;;;;1999.90;999.90;;;24.90;99.90;;;;;;4977995;28;20446;-69
2023/08/15 06:35:26;;;;;;;1999.90;999.90;;;25.10;99.90;;;;;;4973001;28;20440;-70
2023/08/15 06:37:53;;;;;;;1999.90;999.90;;;25.30;99.90;;;;;;4978562;28;20470;-70
2023/08/15 06:40:20;;;;;;;1999.90;999.90;;;25.30;99.90;;;;;;4976964;28;20448;-69
2023/08/15 06:42:46;;;;;;;1999.90;999.90;;;25.30;99.90;;;;;;4980442;28;21426;-69
2023/08/15 06:45:16;;;;;;;1999.90;999.90;;;25.40;99.90;;;;;;4981977;28;20434;-69
2023/08/15 06:47:43;;;;;;;1999.90;999.90;;;25.30;99.90;;;;;;4975162;28;20475;-69
2023/08/15 06:50:11;;;;;;;1999.90;999.90;;;24.90;99.90;;;;;;4977080;28;20442;-69
2023/08/15 06:52:38;;;;;;;1999.90;999.90;;;24.80;99.90;;;;;;4980402;28;20436;-69
2023/08/15 06:55:06;;;;;;;1999.90;999.90;;;24.70;99.90;;;;;;4983814;28;20454;-69
2023/08/15 06:57:34;;;;;;;1999.90;999.90;;;24.80;99.90;;;;;;4980636;28;20437;-69
2023/08/15 07:00:00;;;;;;;1999.90;999.90;;;24.80;99.90;;;;;;4985859;28;20786;-69
2023/08/15 07:02:28;;;;;;;1999.90;999.90;;;24.80;99.90;;;;;;4983685;28;20461;-68
2023/08/15 07:04:55;;;;;;;1999.90;999.90;;;24.60;99.90;;;;;;4985985;28;20442;-70
2023/08/15 07:07:23;;;;;;;1999.90;999.90;;;24.30;99.90;;;;;;4975588;28;20442;-69
2023/08/15 07:09:50;;;;;;;1999.90;999.90;;;24.00;99.90;;;;;;4986434;28;20466;-69
2023/08/15 07:12:18;;;;;;;1999.90;999.90;;;24.00;99.90;;;;;;4982101;28;20449;-69
2023/08/15 07:14:45;;;;;;;1999.90;999.90;;;24.00;99.90;;;;;;4984371;28;20435;-69
2023/08/15 07:17:12;;;;;;;1999.90;999.90;;;23.90;99.90;;;;;;4986370;28;20469;-68
2023/08/15 07:19:39;;;;;;;1999.90;999.90;;;23.80;99.90;;;;;;4993978;28;20461;-66
2023/08/15 07:22:06;;;;;;;1999.90;999.90;;;23.50;99.90;;;;;;4982999;28;20438;-67
2023/08/15 07:24:34;;;;;;;1999.90;999.90;;;23.20;99.90;;;;;;4976563;28;20431;-66
2023/08/15 07:27:00;;;;;;;1999.90;999.90;;;22.90;99.90;;;;;;4983737;28;20437;-68
2023/08/15 07:29:27;;;;;;;1999.90;999.90;;;22.80;99.90;;;;;;4982956;28;20438;-67
2023/08/15 07:31:54;;;;;;;1999.90;999.90;;;22.80;99.90;;;;;;4993189;28;20449;-67
2023/08/15 07:34:20;;;;;;;1999.90;999.90;;;22.60;99.90;;;;;;4989675;28;20436;-67
2023/08/15 07:36:47;;;;;;;1999.90;999.90;;;22.50;99.90;;;;;;4981295;28;20434;-67
2023/08/15 07:39:14;;;;;;;1999.90;999.90;;;22.50;99.90;;;;;;4988050;28;20452;-67
2023/08/15 07:41:42;;;;;;;1999.90;999.90;;;22.50;99.90;;;;;;4979327;28;20443;-67
2023/08/15 07:44:09;;;;;;;1999.90;999.90;;;22.50;99.90;;;;;;4987160;28;20461;-67
2023/08/15 07:46:36;;;;;;;1999.90;999.90;;;22.70;99.90;;;;;;4986716;28;20434;-67
2023/08/15 07:49:03;;;;;;;1999.90;999.90;;;22.70;99.90;;;;;;4981988;28;20521;-67
2023/08/15 07:51:31;;;;;;;1999.90;999.90;;;22.70;99.90;;;;;;4975928;28;20440;-68
2023/08/15 07:53:58;;;;;;;1999.90;999.90;;;22.80;99.90;;;;;;4981336;28;20463;-66
2023/08/15 07:56:24;;;;;;;1999.90;999.90;;;22.80;99.90;;;;;;4982624;28;20994;-65
2023/08/15 07:58:52;;;;;;;1999.90;999.90;;;22.80;99.90;;;;;;4987826;28;20447;-66
2023/08/15 08:01:19;;;;;;;1999.90;999.90;;;22.90;99.90;;;;;;4987545;28;20436;-67
2023/08/15 08:03:46;;;;;;;1999.90;999.90;;;23.00;99.90;;;;;;4978747;28;20440;-67
2023/08/15 08:06:12;;;;;;;1999.90;999.90;;;23.00;99.90;;;;;;4993539;28;20426;-68
2023/08/15 08:08:39;;;;;;;1999.90;999.90;;;23.10;99.90;;;;;;4991711;28;20434;-68
2023/08/15 08:11:06;;;;;;;1999.90;999.90;;;23.30;99.90;;;;;;4983187;28;20434;-70
2023/08/15 08:13:32;;;;;;;1999.90;999.90;;;24.00;99.90;;;;;;4984059;28;20805;-69
2023/08/15 08:16:00;;;;;;;1999.90;999.90;;;24.50;99.90;;;;;;4974144;28;20427;-68
2023/08/15 08:18:27;;;;;;;1999.90;999.90;;;25.10;99.90;;;;;;4974134;28;20770;-68
2023/08/15 08:20:55;;;;;;;1999.90;999.90;;;25.80;99.90;;;;;;4973215;28;20416;-69
2023/08/15 08:23:23;;;;;;;1999.90;999.90;;;26.20;99.90;;;;;;4978771;28;20434;-68
2023/08/15 08:25:50;;;;;;;1999.90;999.90;;;26.40;99.90;;;;;;4989670;28;20941;-68
2023/08/15 08:28:17;;;;;;;1999.90;999.90;;;26.40;99.90;;;;;;4986533;28;20949;-69
2023/08/15 08:30:44;;;;;;;1999.90;999.90;;;26.50;99.90;;;;;;4984183;28;20447;-69
2023/08/15 08:33:13;;;;;;;1999.90;999.90;;;26.50;99.90;;;;;;4987656;28;20511;-69
2023/08/15 08:35:41;;;;;;;1999.90;999.90;;;26.50;99.90;;;;;;4989893;28;20441;-68
2023/08/15 08:38:07;;;;;;;1999.90;999.90;;;26.40;99.90;;;;;;4976261;28;20438;-69
2023/08/15 08:40:34;;;;;;;1999.90;999.90;;;26.60;99.90;;;;;;4980959;28;20760;-68
2023/08/15 08:43:01;;;;;;;1999.90;999.90;;;26.60;99.90;;;;;;4982666;28;20532;-67
2023/08/15 08:45:30;;;;;;;1999.90;999.90;;;26.60;99.90;;;;;;4984489;28;20802;-70
2023/08/15 08:47:57;;;;;;;1999.90;999.90;;;26.60;99.90;;;;;;4984335;28;20469;-68
2023/08/15 08:50:27;;;;;;;1999.90;999.90;;;26.70;99.90;;;;;;4984623;28;20498;-68
2023/08/15 08:52:54;;;;;;;1999.90;999.90;;;26.60;99.90;;;;;;4983805;28;20440;-69
2023/08/15 08:55:22;;;;;;;1999.90;999.90;;;26.70;99.90;;;;;;4984870;28;20942;-67
2023/08/15 08:57:51;;;;;;;1999.90;999.90;;;27.30;99.90;;;;;;4986750;28;20448;-68
2023/08/15 09:00:23;;;;;;;1999.90;999.90;;;27.20;99.90;;;;;;4988157;28;20471;-69
2023/08/15 09:02:52;;;;;;;1999.90;999.90;;;27.40;99.90;;;;;;4980643;28;20522;-69
2023/08/15 09:05:19;;;;;;;1999.90;999.90;;;27.90;99.90;;;;;;4990054;28;20478;-69
2023/08/15 09:07:48;;;;;;;1999.90;999.90;;;28.10;99.90;;;;;;4981495;28;20825;-68
2023/08/15 09:10:14;;;;;;;1999.90;999.90;;;28.30;99.90;;;;;;4983044;28;20795;-69
2023/08/15 09:12:42;;;;;;;1999.90;999.90;;;28.30;99.90;;;;;;4992082;28;20427;-69
2023/08/15 09:15:10;;;;;;;1999.90;999.90;;;28.30;99.90;;;;;;4973686;28;20432;-69
2023/08/15 09:17:38;;;;;;;1999.90;999.90;;;28.40;99.90;;;;;;4972927;28;20423;-68
2023/08/15 09:20:13;;;;;;;1999.90;999.90;;;28.40;99.90;;;;;;4972972;28;20531;-68
2023/08/15 09:22:41;;;;;;;1999.90;999.90;;;28.50;99.90;;;;;;4980152;28;20953;-69
2023/08/15 09:25:10;;;;;;;1999.90;999.90;;;28.50;99.90;;;;;;4989081;28;20518;-69
2023/08/15 09:27:39;;;;;;;1999.90;999.90;;;28.40;99.90;;;;;;4984863;28;20555;-68
2023/08/15 09:30:11;;;;;;;1999.90;999.90;;;28.40;99.90;;;;;;4982880;28;20440;-69
2023/08/15 09:32:39;;;;;;;1999.90;999.90;;;28.40;99.90;;;;;;4986856;28;20441;-69
2023/08/15 09:35:08;;;;;;;1999.90;999.90;;;28.50;99.90;;;;;;4988110;28;20466;-69
2023/08/15 09:37:35;;;;;;;1999.90;999.90;;;29.00;99.90;;;;;;4974788;28;20443;-69
2023/08/15 09:40:04;;;;;;;1999.90;999.90;;;28.80;99.90;;;;;;4978990;28;20467;-69
2023/08/15 09:42:32;;;;;;;1999.90;999.90;;;29.00;99.90;;;;;;4986359;28;20461;-70
2023/08/15 09:45:00;;;;;;;1999.90;999.90;;;29.00;99.90;;;;;;4981524;28;20442;-69
2023/08/15 09:47:27;;;;;;;1999.90;999.90;;;29.20;99.90;;;;;;4972798;28;20448;-69
2023/08/15 09:49:55;;;;;;;1999.90;999.90;;;29.50;99.90;;;;;;4976167;28;20442;-69
2023/08/15 09:52:22;;;;;;;1999.90;999.90;;;29.50;99.90;;;;;;4979831;28;20434;-69
2023/08/15 09:54:49;;;;;;;1999.90;999.90;;;29.50;99.90;;;;;;4984513;28;20435;-70
2023/08/15 09:57:16;;;;;;;1999.90;999.90;;;29.20;99.90;;;;;;4984051;28;20435;-68
2023/08/15 09:59:44;;;;;;;1999.90;999.90;;;29.00;99.90;;;;;;4986285;28;20442;-68
2023/08/15 10:02:21;;;;;;;1999.90;999.90;;;29.10;99.90;;;;;;4974297;28;20852;-69
2023/08/15 10:04:59;;;;;;;1999.90;999.90;;;29.30;99.90;;;;;;4983512;28;20441;-68
2023/08/15 10:07:28;;;;;;;1999.90;999.90;;;29.40;99.90;;;;;;4982355;28;20451;-69
2023/08/15 10:09:58;;;;;;;1999.90;999.90;;;29.40;99.90;;;;;;4984500;28;20496;-68
2023/08/15 10:12:27;;;;;;;1999.90;999.90;;;29.20;99.90;;;;;;4979232;28;20478;-69
2023/08/15 10:14:57;;;;;;;1999.90;999.90;;;29.40;99.90;;;;;;4977880;28;20428;-69
2023/08/15 10:17:24;;;;;;;1999.90;999.90;;;29.60;99.90;;;;;;4974322;28;20447;-69
2023/08/15 10:19:51;;;;;;;1999.90;999.90;;;29.60;99.90;;;;;;4976258;28;20482;-69
2023/08/15 10:22:19;;;;;;;1999.90;999.90;;;29.00;99.90;;;;;;4981538;28;20434;-69
2023/08/15 10:24:46;;;;;;;1999.90;999.90;;;29.20;99.90;;;;;;4987080;28;20499;-69
2023/08/15 10:27:14;;;;;;;1999.90;999.90;;;29.40;99.90;;;;;;4980376;28;20946;-70
2023/08/15 10:29:57;;;;;;;1999.90;999.90;;;29.70;99.90;;;;;;4975836;28;20430;-69
2023/08/15 10:32:25;;;;;;;1999.90;999.90;;;30.00;99.90;;;;;;4978629;28;20442;-68
2023/08/15 10:34:54;;;;;;;1999.90;999.90;;;30.10;99.90;;;;;;4984523;28;20540;-70
2023/08/15 10:37:29;;;;;;;1999.90;999.90;;;30.00;99.90;;;;;;4985298;28;20430;-68
2023/08/15 10:40:14;;;;;;;1999.90;999.90;;;30.00;99.90;;;;;;4989058;28;20438;-68
2023/08/15 10:43:06;;;;;;;1999.90;999.90;;;29.70;99.90;;;;;;4985100;28;20418;-69
2023/08/15 10:45:36;;;;;;;1999.90;999.90;;;29.70;99.90;;;;;;4989610;28;20419;-69
2023/08/15 10:48:03;;;;;;;1999.90;999.90;;;29.60;99.90;;;;;;4975271;28;20426;-69
2023/08/15 10:50:30;;;;;;;1999.90;999.90;;;29.70;99.90;;;;;;4972023;28;20946;-69
2023/08/15 10:52:58;;;;;;;1999.90;999.90;;;29.90;99.90;;;;;;4975107;28;20439;-69
2023/08/15 10:55:27;;;;;;;1999.90;999.90;;;29.80;99.90;;;;;;4977358;28;20475;-69
2023/08/15 10:57:55;;;;;;;1999.90;999.90;;;29.80;99.90;;;;;;4979215;28;20483;-69
2023/08/15 11:00:22;;;;;;;1999.90;999.90;;;29.90;99.90;;;;;;4981272;28;20438;-70
2023/08/15 11:02:51;;;;;;;1999.90;999.90;;;30.10;99.90;;;;;;4981777;28;20438;-69
2023/08/15 11:05:19;;;;;;;1999.90;999.90;;;29.90;99.90;;;;;;4986687;28;20437;-69
2023/08/15 11:07:46;;;;;;;1999.90;999.90;;;29.70;99.90;;;;;;4982596;28;20938;-69
2023/08/15 11:10:13;;;;;;;1999.90;999.90;;;29.60;99.90;;;;;;4986137;28;20440;-69
2023/08/15 11:12:47;;;;;;;1999.90;999.90;;;29.80;99.90;;;;;;4984018;28;20445;-69
2023/08/15 11:15:13;;;;;;;1999.90;999.90;;;29.90;99.90;;;;;;4973329;28;20432;-69
2023/08/15 11:17:40;;;;;;;1999.90;999.90;;;29.90;99.90;;;;;;4985236;28;20456;-69
2023/08/15 11:20:10;;;;;;;1999.90;999.90;;;29.80;99.90;;;;;;4986881;28;20434;-69
2023/08/15 11:22:37;;;;;;;1999.90;999.90;;;29.90;99.90;;;;;;4977157;28;20440;-69
2023/08/15 11:25:07;;;;;;;1999.90;999.90;;;30.10;99.90;;;;;;4982421;28;20443;-70
2023/08/15 11:27:39;;;;;;;1999.90;999.90;;;30.30;99.90;;;;;;4975424;28;20445;-69
2023/08/15 11:30:07;;;;;;;1999.90;999.90;;;30.10;99.90;;;;;;4982157;28;20443;-70
2023/08/15 11:32:34;;;;;;;1999.90;999.90;;;30.30;99.90;;;;;;4984011;28;20467;-69
2023/08/15 11:35:00;;;;;;;1999.90;999.90;;;30.40;99.90;;;;;;4976990;28;20436;-70
2023/08/15 11:37:29;;;;;;;1999.90;999.90;;;30.70;99.90;;;;;;4973942;28;20434;-69
2023/08/15 11:39:56;;;;;;;1999.90;999.90;;;31.00;99.90;;;;;;4979982;28;20438;-69
2023/08/15 11:42:23;;;;;;;1999.90;999.90;;;30.90;99.90;;;;;;4985658;28;20439;-70
2023/08/15 11:45:01;;;;;;;1999.90;999.90;;;31.00;99.90;;;;;;4986380;28;20434;-69
2023/08/15 11:47:31;;;;;;;1999.90;999.90;;;31.00;99.90;;;;;;4971948;28;20432;-69
2023/08/15 11:49:57;;;;;;;1999.90;999.90;;;30.50;99.80;;;;;;4977406;28;20498;-69
2023/08/15 11:52:24;;;;;;;1999.90;999.90;;;30.40;99.90;;;;;;4983926;28;20453;-68
2023/08/15 11:54:52;;;;;;;1999.90;999.90;;;30.30;99.90;;;;;;4986279;28;20430;-69
2023/08/15 11:57:34;;;;;;;1999.90;999.90;;;30.30;99.90;;;;;;4973763;28;20436;-70
2023/08/15 12:00:01;;;;;;;1999.90;999.90;;;30.10;99.90;;;;;;4977673;28;20439;-69
2023/08/15 12:02:28;;;;;;;1999.90;999.90;;;30.40;99.90;;;;;;4983308;28;20438;-69